Raleigh County Memorial Airport
KBKW : now visible

Airfield :











YOU CAN JOIN US ON...

 
LOGIN :

Register | Disclaimer

   EN    FR    IT 

 









Legend :    VFR   Marginal VFR   IFR   Intensive IFR   Very Intensive IFR
Visi :
Ceiling :
>= 8 km
>= 3000ft
5 to 8 km
1000 to 3000 ft
1500m to 5 km
500 to 1000 ft
800 to 1500m
200 to 500 ft
< 800m
< 200 ft
Symbols :   Thunderstorms  Fog  Heavy snow  Heavy precipitations  Wind > 20 kt






- Airport Elevation : 2504 ft
- IATA code : BKW


KBKW - Raleigh County Memorial

CURRENT METAR :
  • 301057Z AUTO 00000KT 1SM BR VV005 06/06 A3012 RMK AO2 T00560056

EXPIRED METARs :
  • 301042Z AUTO 36003KT 1SM BR OVC005 06/06 A3011 RMK AO2 RAB33E40 P0000 T00560056
  • 301014Z AUTO 00000KT 2 1/2SM BR OVC004 06/06 A3012 RMK AO2 VIS 3/4 RWY19 T00610056
  • 300951Z AUTO 18003KT 3SM BR OVC006 06/06 A3010 RMK AO2 SLP204 T00610061
  • 300915Z AUTO 18004KT 10SM OVC004 07/06 A3011 RMK AO2 T00670056
  • 300851Z AUTO 21005KT 10SM OVC007 06/06 A3014 RMK AO2 SLP217 T00610056 53001
  • 300827Z AUTO 21006KT 10SM BKN009 BKN014 OVC030 06/05 A3015 RMK AO2 T00610050

TAF KBKW
Valid from the 30 at 11:00 until the 31 at 06:00 UTC


301058Z 3011/3106 20004KT 1/2SM FG OVC004
TEMPO 3011/3014 4SM BR BKN008 OVC015
FM301400 25007KT P6SM BKN006
FM302200 27007KT 4SM BR OVC008
FM310500 31006KT 1 1/2SM RA BR OVC002
KZID FIR / North America



MET'MAP, your aeronautical weather chart ! - Copyright ORBIFLY December 2007 - Disclaimer

ORBIFLY MET'MAP TEAM :

Programming & Development : Alexandra Zaïnal
Original concept : Baudouin d'Aumeries
Technical & hardware support : Manuel Goepfert
Assistance : Marc-Olivier Méhu




SOURCES & CREDITS :

   NOAA       Earth
Advisory